createdAt,value
2022-11-16T00:00:05.655Z,82.90
2022-11-16T00:00:27.865Z,82.55
2022-11-16T00:00:49.811Z,83.57
2022-11-16T00:01:14.799Z,81.22
2022-11-16T00:01:37.784Z,80.07
2022-11-16T00:02:01.861Z,80.82
2022-11-16T00:02:23.824Z,80.93
2022-11-16T00:02:45.957Z,80.72
2022-11-16T00:03:07.976Z,81.85
2022-11-16T00:03:31.650Z,82.75
2022-11-16T00:03:56.044Z,81.50
2022-11-16T00:04:17.912Z,82.88
2022-11-16T00:04:39.769Z,80.43
2022-11-16T00:05:02.621Z,81.60
2022-11-16T00:05:28.326Z,82.47
2022-11-16T00:05:55.964Z,83.95
2022-11-16T00:06:18.493Z,81.03
2022-11-16T00:06:41.648Z,81.40
2022-11-16T00:07:04.127Z,82.15
2022-11-16T00:07:26.067Z,82.38
2022-11-16T00:07:49.148Z,81.53
2022-11-16T00:08:10.830Z,82.28
2022-11-16T00:08:35.799Z,81.20
2022-11-16T00:09:18.468Z,79.82
2022-11-16T00:09:40.186Z,84.60
2022-11-16T00:10:01.861Z,82.00
2022-11-16T00:10:24.617Z,80.10
2022-11-16T00:10:46.326Z,81.88
2022-11-16T00:11:10.925Z,80.53
2022-11-16T00:11:32.703Z,79.75
2022-11-16T00:11:56.284Z,80.25
2022-11-16T00:12:19.043Z,81.78
2022-11-16T00:12:40.796Z,81.95
2022-11-16T00:13:02.523Z,80.40
2022-11-16T00:13:24.284Z,80.30
2022-11-16T00:13:47.289Z,80.57
2022-11-16T00:14:09.340Z,80.13
2022-11-16T00:14:34.723Z,79.32
2022-11-16T00:14:57.403Z,83.13
2022-11-16T00:15:19.092Z,83.43
2022-11-16T00:15:40.795Z,82.93
2022-11-16T00:16:03.076Z,81.15
2022-11-16T00:16:24.865Z,82.18
2022-11-16T00:16:47.899Z,81.95
2022-11-16T00:17:09.569Z,82.03
2022-11-16T00:17:31.344Z,80.03
2022-11-16T00:17:53.026Z,81.82
2022-11-16T00:18:14.694Z,82.80
2022-11-16T00:18:37.328Z,83.07
2022-11-16T00:19:01.611Z,81.88
2022-11-16T00:19:23.907Z,80.97
2022-11-16T00:19:48.080Z,81.25
2022-11-16T00:20:10.768Z,83.15
2022-11-16T00:20:32.448Z,82.32
2022-11-16T00:20:54.208Z,80.90
2022-11-16T00:21:15.910Z,81.78
2022-11-16T00:21:38.958Z,82.22
2022-11-16T00:22:00.708Z,82.30
2022-11-16T00:22:22.541Z,81.78
2022-11-16T00:22:45.231Z,81.30
2022-11-16T00:23:08.271Z,80.82
2022-11-16T00:23:29.960Z,82.07
2022-11-16T00:23:51.868Z,82.28
2022-11-16T00:24:14.640Z,81.53
2022-11-16T00:24:37.411Z,81.40
2022-11-16T00:24:59.158Z,82.25
2022-11-16T00:25:20.894Z,81.95
2022-11-16T00:25:44.414Z,81.45
2022-11-16T00:26:09.437Z,81.25
2022-11-16T00:26:31.340Z,80.97
2022-11-16T00:26:54.197Z,82.63
2022-11-16T00:27:16.142Z,81.05
2022-11-16T00:27:38.867Z,81.15
2022-11-16T00:28:00.635Z,81.43
2022-11-16T00:28:22.375Z,81.75
2022-11-16T00:28:44.153Z,81.10
2022-11-16T00:29:06.832Z,81.65
2022-11-16T00:29:28.559Z,82.10
2022-11-16T00:29:50.296Z,83.07
2022-11-16T00:30:12.771Z,83.32
2022-11-16T00:30:35.444Z,81.65
2022-11-16T00:31:00.635Z,81.90
2022-11-16T00:31:23.027Z,81.47
2022-11-16T00:31:45.387Z,83.00
2022-11-16T00:32:08.321Z,80.63
2022-11-16T00:32:31.239Z,82.72
2022-11-16T00:32:53.091Z,83.32
2022-11-16T00:33:15.848Z,83.05
2022-11-16T00:33:37.723Z,81.90
2022-11-16T00:34:00.438Z,83.63
2022-11-16T00:34:22.519Z,83.57
2022-11-16T00:34:44.302Z,82.00
2022-11-16T00:35:07.204Z,82.35
2022-11-16T00:35:29.926Z,81.57
2022-11-16T00:35:51.705Z,81.07
2022-11-16T00:36:13.822Z,83.15
2022-11-16T00:36:35.502Z,83.00
2022-11-16T00:36:58.369Z,82.28
2022-11-16T00:37:20.051Z,82.63
2022-11-16T00:37:41.916Z,81.50
2022-11-16T00:38:03.968Z,82.45
2022-11-16T00:38:28.113Z,82.37
2022-11-16T00:38:52.216Z,82.40
2022-11-16T00:39:16.164Z,83.20
2022-11-16T00:39:37.908Z,81.05
2022-11-16T00:40:00.550Z,84.45
2022-11-16T00:40:22.757Z,83.30
2022-11-16T00:40:44.394Z,82.18
2022-11-16T00:41:06.563Z,82.32
2022-11-16T00:41:29.243Z,83.85
2022-11-16T00:41:51.349Z,83.72
2022-11-16T00:42:13.158Z,82.45
2022-11-16T00:42:34.858Z,82.35
2022-11-16T00:42:56.846Z,81.95
2022-11-16T00:43:19.527Z,81.50
2022-11-16T00:43:41.617Z,81.95
2022-11-16T00:44:03.807Z,83.33
2022-11-16T00:44:25.536Z,81.65
2022-11-16T00:44:48.449Z,80.93
2022-11-16T00:45:10.838Z,81.57
2022-11-16T00:45:32.634Z,83.43
2022-11-16T00:45:54.345Z,84.55
2022-11-16T00:46:16.257Z,83.97
2022-11-16T00:46:39.330Z,85.53
2022-11-16T00:47:01.128Z,83.78
2022-11-16T00:47:22.944Z,83.95
2022-11-16T00:47:44.835Z,83.85
2022-11-16T00:48:07.536Z,82.07
2022-11-16T00:48:29.331Z,80.78
2022-11-16T00:48:51.029Z,82.18
2022-11-16T00:49:12.728Z,85.18
2022-11-16T00:49:35.444Z,85.63
2022-11-16T00:49:57.721Z,84.05
2022-11-16T00:50:19.442Z,83.68
2022-11-16T00:50:41.184Z,83.97
2022-11-16T00:51:04.083Z,81.68
2022-11-16T00:51:26.051Z,82.57
2022-11-16T00:51:47.968Z,81.78
2022-11-16T00:52:09.754Z,81.70
2022-11-16T00:52:32.454Z,81.63
2022-11-16T00:52:54.783Z,81.40
2022-11-16T00:53:18.489Z,82.70
2022-11-16T00:53:41.563Z,82.65
2022-11-16T00:54:04.609Z,83.20
2022-11-16T00:54:29.971Z,83.03
2022-11-16T00:54:52.110Z,81.97
2022-11-16T00:55:14.226Z,82.13
2022-11-16T00:55:37.521Z,81.22
2022-11-16T00:55:59.271Z,84.10
2022-11-16T00:56:21.985Z,81.25
2022-11-16T00:56:43.689Z,82.93
2022-11-16T00:57:08.638Z,84.80
2022-11-16T00:57:31.063Z,83.72
2022-11-16T00:57:52.958Z,84.45
2022-11-16T00:58:17.266Z,83.15
2022-11-16T00:58:41.703Z,83.53
2022-11-16T00:59:05.479Z,82.53
2022-11-16T00:59:27.617Z,83.32
2022-11-16T00:59:52.931Z,84.35
2022-11-16T01:00:16.185Z,83.57
2022-11-16T01:00:38.192Z,84.38
2022-11-16T01:01:04.667Z,83.25
2022-11-16T01:01:27.500Z,84.65
2022-11-16T01:01:49.448Z,82.77
2022-11-16T01:02:11.689Z,82.32
2022-11-16T01:02:36.292Z,82.35
2022-11-16T01:02:58.046Z,83.80
2022-11-16T01:03:20.943Z,84.47
2022-11-16T01:03:42.889Z,82.23
2022-11-16T01:04:04.834Z,82.50
2022-11-16T01:04:26.642Z,84.22
2022-11-16T01:04:48.516Z,82.85
2022-11-16T01:05:12.437Z,84.35
2022-11-16T01:05:34.538Z,83.72
2022-11-16T01:06:00.544Z,82.80
2022-11-16T01:06:24.254Z,81.50
2022-11-16T01:06:45.938Z,82.68
2022-11-16T01:07:07.714Z,84.57
2022-11-16T01:07:29.523Z,82.93
2022-11-16T01:07:52.810Z,82.17
2022-11-16T01:08:14.667Z,82.40
2022-11-16T01:08:37.546Z,84.28
2022-11-16T01:09:00.707Z,84.22
2022-11-16T01:09:23.623Z,83.30
2022-11-16T01:09:45.312Z,84.30
2022-11-16T01:10:10.561Z,82.95
2022-11-16T01:10:33.606Z,84.57
2022-11-16T01:11:17.912Z,83.75
2022-11-16T01:11:58.114Z,82.05
2022-11-16T01:12:20.000Z,82.30
2022-11-16T01:12:41.753Z,82.60
2022-11-16T01:13:03.531Z,83.35
2022-11-16T01:13:25.210Z,82.20
2022-11-16T01:13:47.280Z,81.53
2022-11-16T01:14:10.694Z,82.07
2022-11-16T01:14:32.475Z,83.32
2022-11-16T01:14:54.198Z,81.80
2022-11-16T01:15:16.707Z,81.68
2022-11-16T01:15:39.437Z,83.63
2022-11-16T01:16:01.182Z,83.82
2022-11-16T01:16:23.446Z,84.82
2022-11-16T01:16:45.140Z,81.53
2022-11-16T01:17:08.272Z,81.13
2022-11-16T01:17:29.942Z,82.22
2022-11-16T01:17:52.678Z,81.32
2022-11-16T01:18:14.404Z,81.50
2022-11-16T01:18:37.320Z,80.68
2022-11-16T01:19:00.294Z,82.35
2022-11-16T01:19:21.986Z,81.00
2022-11-16T01:19:43.706Z,83.45
2022-11-16T01:20:07.887Z,82.30
2022-11-16T01:20:31.620Z,82.90
2022-11-16T01:20:54.191Z,83.97
2022-11-16T01:21:16.420Z,83.47
2022-11-16T01:21:38.161Z,84.15
2022-11-16T01:22:01.591Z,83.88
2022-11-16T01:22:23.402Z,84.40
2022-11-16T01:22:45.383Z,82.68
2022-11-16T01:23:07.084Z,83.00
2022-11-16T01:23:28.748Z,83.13
2022-11-16T01:23:51.510Z,83.60
2022-11-16T01:24:14.860Z,82.43
2022-11-16T01:24:36.808Z,82.25
2022-11-16T01:24:58.490Z,83.00
2022-11-16T01:25:21.800Z,83.60
2022-11-16T01:25:43.473Z,84.85
2022-11-16T01:26:05.467Z,86.72
2022-11-16T01:26:30.034Z,82.93
2022-11-16T01:26:56.695Z,81.70
2022-11-16T01:27:19.093Z,83.80
2022-11-16T01:27:41.455Z,84.97
2022-11-16T01:28:08.561Z,84.55
2022-11-16T01:28:40.210Z,82.80
2022-11-16T01:29:02.865Z,85.03
2022-11-16T01:29:30.039Z,82.35
2022-11-16T01:29:54.738Z,83.18
2022-11-16T01:30:17.506Z,84.05
2022-11-16T01:30:48.647Z,85.13
2022-11-16T01:31:11.089Z,85.43
2022-11-16T01:31:33.165Z,86.35
2022-11-16T01:31:58.602Z,86.32
2022-11-16T01:32:20.516Z,84.35
2022-11-16T01:32:42.315Z,84.45
2022-11-16T01:33:04.106Z,84.97
2022-11-16T01:33:25.819Z,83.97
2022-11-16T01:33:48.580Z,84.63
2022-11-16T01:34:19.554Z,85.18
2022-11-16T01:34:41.425Z,85.65
2022-11-16T01:35:18.326Z,83.30
2022-11-16T01:35:43.181Z,83.70
2022-11-16T01:36:10.555Z,83.47
2022-11-16T01:36:33.083Z,85.97
2022-11-16T01:36:56.190Z,85.18
2022-11-16T01:37:21.139Z,85.13
2022-11-16T01:37:43.917Z,85.35
2022-11-16T01:38:05.871Z,85.35
2022-11-16T01:38:30.113Z,85.53
2022-11-16T01:38:54.275Z,84.70
2022-11-16T01:39:20.972Z,85.22
2022-11-16T01:39:49.286Z,86.43
2022-11-16T01:40:12.635Z,85.20
2022-11-16T01:40:36.526Z,85.80
2022-11-16T01:40:59.919Z,83.57
2022-11-16T01:41:25.874Z,84.72
2022-11-16T01:41:53.203Z,83.75
2022-11-16T01:42:20.583Z,83.18
2022-11-16T01:42:46.807Z,84.70
2022-11-16T01:43:12.681Z,81.97
2022-11-16T01:43:50.371Z,83.03
2022-11-16T01:44:49.232Z,83.03
2022-11-16T01:45:20.947Z,83.70
2022-11-16T01:45:45.146Z,84.43
2022-11-16T01:46:09.399Z,86.45
2022-11-16T01:46:31.847Z,83.18
2022-11-16T01:46:54.027Z,82.85
2022-11-16T01:47:18.049Z,83.50
2022-11-16T01:47:40.517Z,83.18
2022-11-16T01:48:02.316Z,83.10
2022-11-16T01:48:30.128Z,86.72
2022-11-16T01:48:55.107Z,85.75
2022-11-16T01:49:19.226Z,84.57
2022-11-16T01:49:43.554Z,81.88
2022-11-16T01:50:13.540Z,83.38
2022-11-16T01:50:38.651Z,82.68
2022-11-16T01:51:00.378Z,83.50
2022-11-16T01:51:24.821Z,82.82
2022-11-16T01:51:50.996Z,82.70
2022-11-16T01:52:19.646Z,84.35
2022-11-16T01:52:46.159Z,83.57
2022-11-16T01:53:11.084Z,82.90
2022-11-16T01:53:41.097Z,84.15
2022-11-16T01:54:06.920Z,82.35
2022-11-16T01:54:32.902Z,82.25
2022-11-16T01:54:55.571Z,82.72
2022-11-16T01:55:19.949Z,81.70
2022-11-16T01:55:56.078Z,83.32
2022-11-16T01:56:38.587Z,83.78
2022-11-16T01:57:17.063Z,85.25
2022-11-16T01:57:47.397Z,83.15
2022-11-16T01:58:10.686Z,81.75
2022-11-16T01:58:35.886Z,78.30
2022-11-16T01:59:08.376Z,81.22
2022-11-16T01:59:30.521Z,81.15
2022-11-16T01:59:56.625Z,81.20
2022-11-16T02:00:21.109Z,81.38
2022-11-16T02:00:52.570Z,81.88
2022-11-16T02:01:24.558Z,82.07
2022-11-16T02:01:51.250Z,81.63
2022-11-16T02:02:14.509Z,80.78
2022-11-16T02:02:36.229Z,81.43
2022-11-16T02:02:58.177Z,80.28
2022-11-16T02:03:35.529Z,82.35
2022-11-16T02:03:57.388Z,81.65
2022-11-16T02:04:19.124Z,81.82
2022-11-16T02:04:47.652Z,82.47
2022-11-16T02:05:18.422Z,81.47
2022-11-16T02:06:00.162Z,80.15
2022-11-16T02:06:32.451Z,81.50
2022-11-16T02:07:07.879Z,81.50
2022-11-16T02:08:01.027Z,80.95
2022-11-16T02:08:53.012Z,82.73
2022-11-16T02:09:53.818Z,81.97
2022-11-16T02:10:28.639Z,82.82
2022-11-16T02:11:07.267Z,80.50
2022-11-16T02:11:44.215Z,80.22
2022-11-16T02:12:15.547Z,80.07
2022-11-16T02:12:55.207Z,81.45
2022-11-16T02:13:35.113Z,80.00
2022-11-16T02:14:07.112Z,80.97
2022-11-16T02:14:37.896Z,81.18
2022-11-16T02:15:09.306Z,80.03
2022-11-16T02:15:41.333Z,79.53
2022-11-16T02:16:19.006Z,81.45
2022-11-16T02:16:50.441Z,83.07
2022-11-16T02:17:25.114Z,81.22
2022-11-16T02:17:51.218Z,79.95
2022-11-16T02:18:25.942Z,81.18
2022-11-16T02:18:54.581Z,80.78
2022-11-16T02:19:39.966Z,80.25
2022-11-16T02:20:36.561Z,78.88
2022-11-16T02:21:10.261Z,79.28
2022-11-16T02:21:36.212Z,80.22
2022-11-16T02:22:06.515Z,81.75
2022-11-16T02:22:39.742Z,78.43
2022-11-16T02:23:18.673Z,79.13
2022-11-16T02:24:06.786Z,80.03
2022-11-16T02:24:48.278Z,80.13
2022-11-16T02:25:14.130Z,80.60
2022-11-16T02:25:44.030Z,81.00
2022-11-16T02:26:17.870Z,79.65
2022-11-16T02:27:16.810Z,80.60
2022-11-16T02:28:14.268Z,80.18
2022-11-16T02:28:44.189Z,78.05
2022-11-16T02:29:25.074Z,80.13
2022-11-16T02:29:50.593Z,79.18
2022-11-16T02:30:13.005Z,78.57
2022-11-16T02:30:39.339Z,82.72
2022-11-16T02:31:05.082Z,79.65
2022-11-16T02:31:29.818Z,79.88
2022-11-16T02:31:59.191Z,79.50
2022-11-16T02:32:26.320Z,78.03
2022-11-16T02:32:51.477Z,79.75
2022-11-16T02:33:16.340Z,78.15
2022-11-16T02:33:40.268Z,78.10
2022-11-16T02:34:03.399Z,76.97
2022-11-16T02:34:29.488Z,77.90
2022-11-16T02:34:54.200Z,79.30
2022-11-16T02:35:18.948Z,77.63
2022-11-16T02:35:42.708Z,78.43
2022-11-16T02:36:08.696Z,79.20
2022-11-16T02:36:32.309Z,77.93
2022-11-16T02:36:54.934Z,80.13
2022-11-16T02:37:19.337Z,77.93
2022-11-16T02:37:46.742Z,78.57
2022-11-16T02:38:11.529Z,78.57
2022-11-16T02:38:36.336Z,78.75
2022-11-16T02:39:01.914Z,79.38
2022-11-16T02:39:27.080Z,77.97
2022-11-16T02:39:52.325Z,80.47
2022-11-16T02:40:16.470Z,78.20
2022-11-16T02:40:40.297Z,79.03
2022-11-16T02:41:07.633Z,79.90
2022-11-16T02:41:32.738Z,78.07
2022-11-16T02:41:55.595Z,79.07
2022-11-16T02:42:21.778Z,76.93
2022-11-16T02:42:48.787Z,77.43
2022-11-16T02:43:12.787Z,78.90
2022-11-16T02:43:36.243Z,78.60
2022-11-16T02:44:03.433Z,77.80
2022-11-16T02:44:30.309Z,76.40
2022-11-16T02:44:53.074Z,76.93
2022-11-16T02:45:18.656Z,78.82
2022-11-16T02:45:44.019Z,78.95
2022-11-16T02:46:08.412Z,78.55
2022-11-16T02:46:32.378Z,75.78
2022-11-16T02:46:57.854Z,76.25
2022-11-16T02:47:21.990Z,78.13
2022-11-16T02:47:47.234Z,79.03
2022-11-16T02:48:11.819Z,79.60
2022-11-16T02:48:36.127Z,77.18
2022-11-16T02:49:01.072Z,78.75
2022-11-16T02:49:23.656Z,77.95
2022-11-16T02:49:49.092Z,78.38
2022-11-16T02:50:14.125Z,79.40
2022-11-16T02:50:36.993Z,79.43
2022-11-16T02:50:58.672Z,78.05
2022-11-16T02:51:22.438Z,79.18
2022-11-16T02:51:45.575Z,80.43
2022-11-16T02:52:07.965Z,78.00
2022-11-16T02:52:29.640Z,79.30
2022-11-16T02:52:52.436Z,78.88
2022-11-16T02:53:14.477Z,79.63
2022-11-16T02:53:40.664Z,79.18
2022-11-16T02:54:09.087Z,78.80
2022-11-16T02:54:34.436Z,77.47
2022-11-16T02:54:56.165Z,79.90
2022-11-16T02:55:18.186Z,79.50
2022-11-16T02:55:40.060Z,78.72
2022-11-16T02:56:02.766Z,80.97
2022-11-16T02:56:24.746Z,78.95
2022-11-16T02:56:52.518Z,77.60
2022-11-16T02:57:34.420Z,77.53
2022-11-16T02:57:58.856Z,77.00
2022-11-16T02:58:23.116Z,76.75
2022-11-16T02:58:45.361Z,77.43
2022-11-16T02:59:09.552Z,79.25
2022-11-16T02:59:37.506Z,79.57
2022-11-16T03:00:00.465Z,81.82
2022-11-16T03:00:28.490Z,78.43
2022-11-16T03:00:56.461Z,79.78
2022-11-16T03:01:23.951Z,77.97
2022-11-16T03:01:47.958Z,79.80
2022-11-16T03:02:22.683Z,79.25
2022-11-16T03:02:52.154Z,77.40
2022-11-16T03:03:20.703Z,79.22
2022-11-16T03:03:47.368Z,79.20
2022-11-16T03:04:15.460Z,76.82
2022-11-16T03:04:41.441Z,75.43
2022-11-16T03:05:07.260Z,78.97
2022-11-16T03:05:39.473Z,78.55
2022-11-16T03:06:06.748Z,78.47
2022-11-16T03:06:31.122Z,79.53
2022-11-16T03:06:55.239Z,77.10
2022-11-16T03:07:21.475Z,77.63
2022-11-16T03:07:46.038Z,79.35
2022-11-16T03:08:14.155Z,80.47
2022-11-16T03:08:39.571Z,79.55
2022-11-16T03:09:05.993Z,79.30
2022-11-16T03:09:29.580Z,78.45
2022-11-16T03:09:51.440Z,77.88
2022-11-16T03:10:35.643Z,79.68
2022-11-16T03:11:20.236Z,79.07
2022-11-16T03:12:00.480Z,77.57
2022-11-16T03:12:28.990Z,77.50
2022-11-16T03:12:50.794Z,78.03
2022-11-16T03:13:14.342Z,78.47
2022-11-16T03:13:36.770Z,78.88
2022-11-16T03:14:02.955Z,78.85
2022-11-16T03:14:27.948Z,78.07
2022-11-16T03:14:53.944Z,78.05
2022-11-16T03:15:15.714Z,77.97
2022-11-16T03:15:39.671Z,79.88
2022-11-16T03:16:03.621Z,80.95
2022-11-16T03:16:27.636Z,79.15
2022-11-16T03:16:55.004Z,77.95
2022-11-16T03:17:19.810Z,78.10
2022-11-16T03:17:43.898Z,79.35
2022-11-16T03:18:06.911Z,78.15
2022-11-16T03:18:29.940Z,80.30
2022-11-16T03:18:56.602Z,77.50
2022-11-16T03:19:23.228Z,78.47
2022-11-16T03:19:50.086Z,78.38
2022-11-16T03:20:14.348Z,77.83
2022-11-16T03:20:38.130Z,79.72
2022-11-16T03:21:06.915Z,80.95
2022-11-16T03:21:33.294Z,79.30
2022-11-16T03:21:59.808Z,79.55
2022-11-16T03:22:26.155Z,77.80
2022-11-16T03:22:49.910Z,78.60
2022-11-16T03:23:13.714Z,78.72
2022-11-16T03:23:37.921Z,77.53
2022-11-16T03:24:00.201Z,77.82
2022-11-16T03:24:21.965Z,77.50
2022-11-16T03:24:44.958Z,78.78
2022-11-16T03:25:08.002Z,77.07
2022-11-16T03:25:33.098Z,77.40
2022-11-16T03:25:56.142Z,76.63
2022-11-16T03:26:23.541Z,78.18
2022-11-16T03:26:49.322Z,77.90
2022-11-16T03:27:19.262Z,79.22
2022-11-16T03:27:47.093Z,79.57
2022-11-16T03:28:12.334Z,77.63
2022-11-16T03:28:36.101Z,76.25
2022-11-16T03:29:01.956Z,78.32
2022-11-16T03:29:30.050Z,78.63
2022-11-16T03:30:01.820Z,79.20
2022-11-16T03:30:24.893Z,78.68
2022-11-16T03:30:51.366Z,76.77
2022-11-16T03:31:15.412Z,78.00
2022-11-16T03:31:42.421Z,79.32
2022-11-16T03:32:13.518Z,78.22
2022-11-16T03:32:42.776Z,79.25
2022-11-16T03:33:10.154Z,76.75
2022-11-16T03:33:36.238Z,77.50
2022-11-16T03:34:03.949Z,78.38
2022-11-16T03:34:28.539Z,78.70
2022-11-16T03:34:56.350Z,80.22
2022-11-16T03:35:22.672Z,78.93
2022-11-16T03:35:50.158Z,79.35
2022-11-16T03:36:17.211Z,78.53
2022-11-16T03:36:40.579Z,78.13
2022-11-16T03:37:05.101Z,78.53
2022-11-16T03:37:31.379Z,78.97
2022-11-16T03:37:56.894Z,80.63
2022-11-16T03:38:21.989Z,79.13
2022-11-16T03:38:45.257Z,78.68
2022-11-16T03:39:11.133Z,77.90
2022-11-16T03:39:36.921Z,79.07
2022-11-16T03:40:01.659Z,85.07
2022-11-16T03:40:29.390Z,93.90
2022-11-16T03:40:52.104Z,93.47
2022-11-16T03:41:14.926Z,91.25
2022-11-16T03:41:39.152Z,93.00
2022-11-16T03:42:03.850Z,96.47
2022-11-16T03:42:26.527Z,97.95
2022-11-16T03:42:49.420Z,97.37
2022-11-16T03:43:11.296Z,98.85
2022-11-16T03:43:35.228Z,102.03
2022-11-16T03:43:59.163Z,102.72
2022-11-16T03:44:21.747Z,98.03
2022-11-16T03:44:44.717Z,97.63
2022-11-16T03:45:08.764Z,97.10
2022-11-16T03:45:31.601Z,97.25
2022-11-16T03:45:54.716Z,95.57
2022-11-16T03:46:17.401Z,97.30
2022-11-16T03:46:41.157Z,103.90
2022-11-16T03:47:03.651Z,106.35
2022-11-16T03:47:26.326Z,105.63
2022-11-16T03:47:48.270Z,111.10
2022-11-16T03:48:11.564Z,112.57
2022-11-16T03:48:35.248Z,113.10
2022-11-16T03:49:00.766Z,123.85
2022-11-16T03:49:29.890Z,127.00
2022-11-16T03:49:51.557Z,128.15
2022-11-16T03:50:16.207Z,123.90
2022-11-16T03:50:38.457Z,125.47
2022-11-16T03:51:00.104Z,127.75
2022-11-16T03:51:22.778Z,127.43
2022-11-16T03:51:45.437Z,125.95
2022-11-16T03:52:07.602Z,136.57
2022-11-16T03:52:29.662Z,146.23
2022-11-16T03:52:51.351Z,141.80
2022-11-16T03:53:14.273Z,143.73
2022-11-16T03:53:36.120Z,140.13
2022-11-16T03:53:57.979Z,137.23
2022-11-16T03:54:19.718Z,145.38
2022-11-16T03:54:41.422Z,134.13
2022-11-16T03:55:04.733Z,132.18
2022-11-16T03:55:26.824Z,133.73
2022-11-16T03:55:50.034Z,145.48
2022-11-16T03:56:12.081Z,160.55
2022-11-16T03:56:35.270Z,169.77
2022-11-16T03:56:57.560Z,176.07
2022-11-16T03:57:19.304Z,182.23
2022-11-16T03:57:47.208Z,176.80
2022-11-16T03:58:10.277Z,177.82
2022-11-16T03:58:33.710Z,176.38
2022-11-16T03:58:56.040Z,173.07
2022-11-16T03:59:17.886Z,172.55
2022-11-16T03:59:41.225Z,174.00
2022-11-16T04:00:04.043Z,179.40
2022-11-16T04:00:36.395Z,173.60
2022-11-16T04:01:03.754Z,169.00
2022-11-16T04:01:26.909Z,165.10
2022-11-16T04:01:48.649Z,171.07
2022-11-16T04:02:10.834Z,174.13
2022-11-16T04:02:32.910Z,169.40
2022-11-16T04:02:54.550Z,167.15
2022-11-16T04:03:18.493Z,172.35
2022-11-16T04:03:41.719Z,181.18
2022-11-16T04:04:05.118Z,183.65
2022-11-16T04:04:45.957Z,178.98
2022-11-16T04:05:27.620Z,168.77
2022-11-16T04:06:08.077Z,189.68
2022-11-16T04:06:49.607Z,201.20
2022-11-16T04:07:30.248Z,202.43
2022-11-16T04:08:10.544Z,210.10
2022-11-16T04:08:51.124Z,211.95
2022-11-16T04:09:33.851Z,212.65
2022-11-16T04:10:13.971Z,212.15
2022-11-16T04:10:55.105Z,203.27
2022-11-16T04:11:38.114Z,207.80
2022-11-16T04:12:18.650Z,214.02
2022-11-16T04:13:00.838Z,219.43
2022-11-16T04:13:45.521Z,215.55
2022-11-16T04:14:29.014Z,209.93
2022-11-16T04:15:08.993Z,195.68
2022-11-16T04:15:49.565Z,199.05
2022-11-16T04:16:30.222Z,189.05
2022-11-16T04:17:11.498Z,209.05
2022-11-16T04:17:51.764Z,206.47
2022-11-16T04:18:32.648Z,203.40
2022-11-16T04:19:13.528Z,192.10
2022-11-16T04:19:57.920Z,184.38
2022-11-16T04:20:40.128Z,199.70
2022-11-16T04:21:20.663Z,196.10
2022-11-16T04:22:03.735Z,199.95
2022-11-16T04:22:50.554Z,197.07
2022-11-16T04:23:33.490Z,192.88
2022-11-16T04:24:16.051Z,196.07
2022-11-16T04:24:40.228Z,194.70
2022-11-16T04:25:05.714Z,191.85
2022-11-16T04:25:31.284Z,196.60
2022-11-16T04:25:54.435Z,194.00
2022-11-16T04:26:18.067Z,193.75
2022-11-16T04:26:59.461Z,192.68
2022-11-16T04:27:44.930Z,200.48
2022-11-16T04:28:13.228Z,202.82
2022-11-16T04:28:38.645Z,199.07
2022-11-16T04:29:00.851Z,200.82
2022-11-16T04:29:22.893Z,198.70
2022-11-16T04:29:44.905Z,196.93
2022-11-16T04:30:08.834Z,193.23
2022-11-16T04:30:53.276Z,190.93
2022-11-16T04:31:34.802Z,210.73
2022-11-16T04:32:19.541Z,192.88
2022-11-16T04:33:00.147Z,195.70
2022-11-16T04:33:49.055Z,204.23
2022-11-16T04:34:30.011Z,211.82
2022-11-16T04:35:12.681Z,219.52
2022-11-16T04:35:53.281Z,217.18
2022-11-16T04:36:33.746Z,218.70
2022-11-16T04:37:13.950Z,229.98
2022-11-16T04:37:49.440Z,232.90
2022-11-16T04:38:15.814Z,224.90
2022-11-16T04:38:37.510Z,231.48
2022-11-16T04:38:59.362Z,235.85
2022-11-16T04:39:22.384Z,231.70
2022-11-16T04:39:44.206Z,226.25
2022-11-16T04:40:07.233Z,236.68
2022-11-16T04:40:29.412Z,236.00
2022-11-16T04:40:52.881Z,228.88
2022-11-16T04:41:29.494Z,228.18
2022-11-16T04:42:10.417Z,217.60
2022-11-16T04:42:32.143Z,199.30
2022-11-16T04:42:54.729Z,189.18
2022-11-16T04:43:17.747Z,190.52
2022-11-16T04:43:39.722Z,186.52
2022-11-16T04:44:01.666Z,186.57
2022-11-16T04:44:28.819Z,188.53
2022-11-16T04:45:10.466Z,193.57
2022-11-16T04:45:58.591Z,194.68
2022-11-16T04:46:47.369Z,190.45
2022-11-16T04:47:09.247Z,191.27
2022-11-16T04:47:33.283Z,186.05
2022-11-16T04:47:56.068Z,188.55
2022-11-16T04:48:22.761Z,188.25
2022-11-16T04:48:47.886Z,184.80
2022-11-16T04:49:10.606Z,189.15
2022-11-16T04:49:33.909Z,197.77
2022-11-16T04:49:55.685Z,191.48
2022-11-16T04:50:18.591Z,192.13
2022-11-16T04:50:41.976Z,194.00
2022-11-16T04:51:03.893Z,196.52
2022-11-16T04:51:26.072Z,198.10
2022-11-16T04:51:48.135Z,197.90
2022-11-16T04:52:10.075Z,193.45
2022-11-16T04:52:33.477Z,192.25
2022-11-16T04:52:55.314Z,190.88
2022-11-16T04:53:17.073Z,199.68
2022-11-16T04:53:42.497Z,201.43
2022-11-16T04:54:15.932Z,204.73
2022-11-16T04:54:37.633Z,191.77
2022-11-16T04:54:59.965Z,185.02
2022-11-16T04:55:23.238Z,190.57
2022-11-16T04:55:46.990Z,188.80
2022-11-16T04:56:09.230Z,193.43
2022-11-16T04:56:31.085Z,192.90
2022-11-16T04:56:53.140Z,193.48
2022-11-16T04:57:15.481Z,195.45
2022-11-16T04:57:38.614Z,196.20
2022-11-16T04:58:00.621Z,198.63
2022-11-16T04:58:22.300Z,205.10
2022-11-16T04:58:45.058Z,202.82
2022-11-16T04:59:07.776Z,207.20
2022-11-16T04:59:29.501Z,198.93
2022-11-16T04:59:51.419Z,201.30
2022-11-16T05:00:13.963Z,204.02
2022-11-16T05:00:36.921Z,199.82
2022-11-16T05:01:00.190Z,204.10
2022-11-16T05:01:42.925Z,205.65
2022-11-16T05:02:09.406Z,203.57
2022-11-16T05:02:38.745Z,206.45
2022-11-16T05:03:02.097Z,204.88
2022-11-16T05:03:24.643Z,203.98
2022-11-16T05:03:46.341Z,203.18
2022-11-16T05:04:08.218Z,200.80
2022-11-16T05:04:31.231Z,206.52
2022-11-16T05:04:53.407Z,206.68
2022-11-16T05:05:16.537Z,204.18
2022-11-16T05:05:40.820Z,202.90
2022-11-16T05:06:02.914Z,202.90
2022-11-16T05:06:24.725Z,206.02
2022-11-16T05:06:47.225Z,204.77
2022-11-16T05:07:11.102Z,203.60
2022-11-16T05:07:35.915Z,201.15
2022-11-16T05:08:05.004Z,202.80
2022-11-16T05:08:27.887Z,203.15
2022-11-16T05:08:50.324Z,203.57
2022-11-16T05:09:12.987Z,201.68
2022-11-16T05:09:34.830Z,204.30
2022-11-16T05:09:56.547Z,204.77
2022-11-16T05:10:19.356Z,207.05
2022-11-16T05:10:41.051Z,203.35
2022-11-16T05:11:04.673Z,200.65
2022-11-16T05:11:27.452Z,200.05
2022-11-16T05:11:50.698Z,199.97
2022-11-16T05:12:14.840Z,201.07
2022-11-16T05:12:38.034Z,204.98
2022-11-16T05:13:02.642Z,203.77
2022-11-16T05:13:24.382Z,204.27
2022-11-16T05:13:47.675Z,206.20
2022-11-16T05:14:10.125Z,203.38
2022-11-16T05:14:32.345Z,206.57
2022-11-16T05:14:55.849Z,200.02
2022-11-16T05:15:19.748Z,205.38
2022-11-16T05:15:45.094Z,204.32
2022-11-16T05:16:07.896Z,201.30
2022-11-16T05:16:30.664Z,205.07
2022-11-16T05:16:52.337Z,204.02
2022-11-16T05:17:16.754Z,204.90
2022-11-16T05:17:38.497Z,201.95
2022-11-16T05:18:06.492Z,189.35
2022-11-16T05:18:28.254Z,190.25
2022-11-16T05:19:10.258Z,190.45
2022-11-16T05:19:51.465Z,194.32
2022-11-16T05:20:31.896Z,195.02
2022-11-16T05:21:01.153Z,192.40
2022-11-16T05:21:27.127Z,194.18
2022-11-16T05:21:48.879Z,199.60
2022-11-16T05:22:10.556Z,195.55
2022-11-16T05:22:33.494Z,196.45
2022-11-16T05:22:57.550Z,198.40
2022-11-16T05:23:41.277Z,201.23
2022-11-16T05:24:25.298Z,199.25
2022-11-16T05:24:47.464Z,194.98
2022-11-16T05:25:11.845Z,196.15
2022-11-16T05:25:36.632Z,200.02
2022-11-16T05:26:01.386Z,201.90
2022-11-16T05:26:23.712Z,199.82
2022-11-16T05:26:46.358Z,202.63
2022-11-16T05:27:11.162Z,199.38
2022-11-16T05:27:34.047Z,202.48
2022-11-16T05:27:55.864Z,201.77
2022-11-16T05:28:19.102Z,198.27
2022-11-16T05:28:40.977Z,202.07
2022-11-16T05:29:05.423Z,201.70
2022-11-16T05:29:27.274Z,202.82
2022-11-16T05:29:50.431Z,203.30
2022-11-16T05:30:15.077Z,205.07
2022-11-16T05:30:37.409Z,202.80
2022-11-16T05:30:59.474Z,205.10
2022-11-16T05:31:24.174Z,207.60
2022-11-16T05:31:45.861Z,205.77
2022-11-16T05:32:07.733Z,204.68
2022-11-16T05:32:30.793Z,201.10